sensor_id;sensor_type;location;lat;lon;timestamp;temperature;humidity
3001;DHT22;1510;51.072;6.678;2023-07-31T00:01:18;16.30;99.90
3001;DHT22;1510;51.072;6.678;2023-07-31T00:03:45;16.30;99.90
3001;DHT22;1510;51.072;6.678;2023-07-31T00:06:12;16.30;99.90
3001;DHT22;1510;51.072;6.678;2023-07-31T00:08:41;16.30;99.90
3001;DHT22;1510;51.072;6.678;2023-07-31T00:11:07;16.30;99.90
3001;DHT22;1510;51.072;6.678;2023-07-31T00:13:34;16.30;99.90
3001;DHT22;1510;51.072;6.678;2023-07-31T00:16:01;16.30;99.90
3001;DHT22;1510;51.072;6.678;2023-07-31T00:18:28;16.30;99.90
3001;DHT22;1510;51.072;6.678;2023-07-31T00:20:55;16.30;99.90
3001;DHT22;1510;51.072;6.678;2023-07-31T00:23:22;16.30;99.90
3001;DHT22;1510;51.072;6.678;2023-07-31T00:25:50;16.30;99.90
3001;DHT22;1510;51.072;6.678;2023-07-31T00:28:17;16.40;99.90
3001;DHT22;1510;51.072;6.678;2023-07-31T00:30:44;16.30;99.90
3001;DHT22;1510;51.072;6.678;2023-07-31T00:33:10;16.30;99.90
3001;DHT22;1510;51.072;6.678;2023-07-31T00:35:37;16.40;99.90
3001;DHT22;1510;51.072;6.678;2023-07-31T00:38:04;16.40;99.90
3001;DHT22;1510;51.072;6.678;2023-07-31T00:40:34;16.40;99.90
3001;DHT22;1510;51.072;6.678;2023-07-31T00:43:03;16.40;99.90
3001;DHT22;1510;51.072;6.678;2023-07-31T00:45:31;16.40;99.90
3001;DHT22;1510;51.072;6.678;2023-07-31T00:47:58;16.40;99.90
3001;DHT22;1510;51.072;6.678;2023-07-31T00:50:25;16.30;99.90
3001;DHT22;1510;51.072;6.678;2023-07-31T00:52:53;16.30;99.90
3001;DHT22;1510;51.072;6.678;2023-07-31T00:55:20;16.30;99.90
3001;DHT22;1510;51.072;6.678;2023-07-31T00:57:48;16.30;99.90
3001;DHT22;1510;51.072;6.678;2023-07-31T01:00:17;16.30;99.90
3001;DHT22;1510;51.072;6.678;2023-07-31T01:02:44;16.30;99.90
3001;DHT22;1510;51.072;6.678;2023-07-31T01:05:11;16.30;99.90
3001;DHT22;1510;51.072;6.678;2023-07-31T01:07:42;16.30;99.90
3001;DHT22;1510;51.072;6.678;2023-07-31T01:10:15;16.30;99.90
3001;DHT22;1510;51.072;6.678;2023-07-31T01:12:45;16.30;99.90
3001;DHT22;1510;51.072;6.678;2023-07-31T01:15:12;16.30;99.90
3001;DHT22;1510;51.072;6.678;2023-07-31T01:17:42;16.30;99.90
3001;DHT22;1510;51.072;6.678;2023-07-31T01:20:12;16.30;99.90
3001;DHT22;1510;51.072;6.678;2023-07-31T01:25:54;16.30;99.90
3001;DHT22;1510;51.072;6.678;2023-07-31T01:28:27;16.30;99.90
3001;DHT22;1510;51.072;6.678;2023-07-31T01:30:58;16.20;99.90
3001;DHT22;1510;51.072;6.678;2023-07-31T01:33:26;16.20;99.90
3001;DHT22;1510;51.072;6.678;2023-07-31T01:35:54;16.30;99.90
3001;DHT22;1510;51.072;6.678;2023-07-31T01:38:22;16.20;99.90
3001;DHT22;1510;51.072;6.678;2023-07-31T01:40:53;16.30;99.90
3001;DHT22;1510;51.072;6.678;2023-07-31T01:43:20;16.30;99.90
3001;DHT22;1510;51.072;6.678;2023-07-31T01:45:47;16.30;99.90
3001;DHT22;1510;51.072;6.678;2023-07-31T01:48:13;16.30;99.90
3001;DHT22;1510;51.072;6.678;2023-07-31T01:50:40;16.30;99.90
3001;DHT22;1510;51.072;6.678;2023-07-31T01:53:07;16.30;99.90
3001;DHT22;1510;51.072;6.678;2023-07-31T01:55:34;16.30;99.90
3001;DHT22;1510;51.072;6.678;2023-07-31T01:58:02;16.20;99.90
3001;DHT22;1510;51.072;6.678;2023-07-31T02:00:29;16.30;99.90
3001;DHT22;1510;51.072;6.678;2023-07-31T02:02:56;16.30;99.90
3001;DHT22;1510;51.072;6.678;2023-07-31T02:05:22;16.30;99.90
3001;DHT22;1510;51.072;6.678;2023-07-31T02:07:49;16.30;99.90
3001;DHT22;1510;51.072;6.678;2023-07-31T02:10:16;16.30;99.90
3001;DHT22;1510;51.072;6.678;2023-07-31T02:12:43;16.40;99.90
3001;DHT22;1510;51.072;6.678;2023-07-31T02:15:11;16.40;99.90
3001;DHT22;1510;51.072;6.678;2023-07-31T02:17:38;16.40;99.90
3001;DHT22;1510;51.072;6.678;2023-07-31T02:20:06;16.50;99.90
3001;DHT22;1510;51.072;6.678;2023-07-31T02:22:33;16.50;99.90
3001;DHT22;1510;51.072;6.678;2023-07-31T02:25:00;16.60;99.90
3001;DHT22;1510;51.072;6.678;2023-07-31T02:27:26;16.60;99.90
3001;DHT22;1510;51.072;6.678;2023-07-31T02:29:53;16.60;99.90
3001;DHT22;1510;51.072;6.678;2023-07-31T02:32:22;16.60;99.90
3001;DHT22;1510;51.072;6.678;2023-07-31T02:34:49;16.60;99.90
3001;DHT22;1510;51.072;6.678;2023-07-31T02:37:16;16.70;99.90
3001;DHT22;1510;51.072;6.678;2023-07-31T02:39:42;16.70;99.90
3001;DHT22;1510;51.072;6.678;2023-07-31T02:42:09;16.70;99.90
3001;DHT22;1510;51.072;6.678;2023-07-31T02:44:36;16.80;99.90
3001;DHT22;1510;51.072;6.678;2023-07-31T02:47:03;16.80;99.90
3001;DHT22;1510;51.072;6.678;2023-07-31T02:49:32;16.80;99.90
3001;DHT22;1510;51.072;6.678;2023-07-31T02:51:58;16.80;99.90
3001;DHT22;1510;51.072;6.678;2023-07-31T02:54:25;16.80;99.90
3001;DHT22;1510;51.072;6.678;2023-07-31T02:56:52;16.80;99.90
3001;DHT22;1510;51.072;6.678;2023-07-31T02:59:20;16.80;99.90
3001;DHT22;1510;51.072;6.678;2023-07-31T03:01:47;16.80;99.90
3001;DHT22;1510;51.072;6.678;2023-07-31T03:04:14;16.80;99.90
3001;DHT22;1510;51.072;6.678;2023-07-31T03:06:42;16.80;99.90
3001;DHT22;1510;51.072;6.678;2023-07-31T03:09:09;16.80;99.90
3001;DHT22;1510;51.072;6.678;2023-07-31T03:11:35;16.80;99.90
3001;DHT22;1510;51.072;6.678;2023-07-31T03:14:02;16.80;99.90
3001;DHT22;1510;51.072;6.678;2023-07-31T03:16:29;16.80;99.90
3001;DHT22;1510;51.072;6.678;2023-07-31T03:18:56;16.80;99.90
3001;DHT22;1510;51.072;6.678;2023-07-31T03:21:23;16.90;99.90
3001;DHT22;1510;51.072;6.678;2023-07-31T03:23:51;16.90;99.90
3001;DHT22;1510;51.072;6.678;2023-07-31T03:26:18;16.90;99.90
3001;DHT22;1510;51.072;6.678;2023-07-31T03:28:45;16.90;99.90
3001;DHT22;1510;51.072;6.678;2023-07-31T03:31:12;16.80;99.90
3001;DHT22;1510;51.072;6.678;2023-07-31T03:33:39;16.80;99.90
3001;DHT22;1510;51.072;6.678;2023-07-31T03:36:06;16.70;99.90
3001;DHT22;1510;51.072;6.678;2023-07-31T03:38:33;16.60;99.90
3001;DHT22;1510;51.072;6.678;2023-07-31T03:41:01;16.60;99.90
3001;DHT22;1510;51.072;6.678;2023-07-31T03:43:28;16.60;99.90
3001;DHT22;1510;51.072;6.678;2023-07-31T03:45:55;16.50;99.90
3001;DHT22;1510;51.072;6.678;2023-07-31T03:48:22;16.50;99.90
3001;DHT22;1510;51.072;6.678;2023-07-31T03:50:49;16.50;99.90
3001;DHT22;1510;51.072;6.678;2023-07-31T03:53:16;16.50;99.90
3001;DHT22;1510;51.072;6.678;2023-07-31T03:55:42;16.60;99.90
3001;DHT22;1510;51.072;6.678;2023-07-31T03:58:11;16.60;99.90
3001;DHT22;1510;51.072;6.678;2023-07-31T04:00:39;16.60;99.90
3001;DHT22;1510;51.072;6.678;2023-07-31T04:03:06;16.60;99.90
3001;DHT22;1510;51.072;6.678;2023-07-31T04:05:33;16.60;99.90
3001;DHT22;1510;51.072;6.678;2023-07-31T04:07:59;16.70;99.90
3001;DHT22;1510;51.072;6.678;2023-07-31T04:10:26;16.70;99.90
3001;DHT22;1510;51.072;6.678;2023-07-31T04:12:53;16.70;99.90
3001;DHT22;1510;51.072;6.678;2023-07-31T04:15:22;16.70;99.90
3001;DHT22;1510;51.072;6.678;2023-07-31T04:17:48;16.70;99.90
3001;DHT22;1510;51.072;6.678;2023-07-31T04:20:15;16.70;99.90
3001;DHT22;1510;51.072;6.678;2023-07-31T04:22:42;16.70;99.90
3001;DHT22;1510;51.072;6.678;2023-07-31T04:25:09;16.60;99.90
3001;DHT22;1510;51.072;6.678;2023-07-31T04:27:36;16.60;99.90
3001;DHT22;1510;51.072;6.678;2023-07-31T04:30:04;16.60;99.90
3001;DHT22;1510;51.072;6.678;2023-07-31T04:32:32;16.60;99.90
3001;DHT22;1510;51.072;6.678;2023-07-31T04:35:00;16.60;99.90
3001;DHT22;1510;51.072;6.678;2023-07-31T04:37:28;16.60;99.90
3001;DHT22;1510;51.072;6.678;2023-07-31T04:39:54;16.70;99.90
3001;DHT22;1510;51.072;6.678;2023-07-31T04:42:21;16.70;99.90
3001;DHT22;1510;51.072;6.678;2023-07-31T04:44:48;16.80;99.90
3001;DHT22;1510;51.072;6.678;2023-07-31T04:47:15;16.80;99.90
3001;DHT22;1510;51.072;6.678;2023-07-31T04:49:43;16.90;99.90
3001;DHT22;1510;51.072;6.678;2023-07-31T04:52:10;16.90;99.90
3001;DHT22;1510;51.072;6.678;2023-07-31T04:54:37;17.00;99.90
3001;DHT22;1510;51.072;6.678;2023-07-31T04:57:05;17.10;99.90
3001;DHT22;1510;51.072;6.678;2023-07-31T04:59:32;17.10;99.90
3001;DHT22;1510;51.072;6.678;2023-07-31T05:01:58;17.20;99.90
3001;DHT22;1510;51.072;6.678;2023-07-31T05:04:25;17.20;99.90
3001;DHT22;1510;51.072;6.678;2023-07-31T05:06:53;17.30;99.90
3001;DHT22;1510;51.072;6.678;2023-07-31T05:09:20;17.30;99.90
3001;DHT22;1510;51.072;6.678;2023-07-31T05:11:47;17.40;99.90
3001;DHT22;1510;51.072;6.678;2023-07-31T05:14:14;17.40;99.90
3001;DHT22;1510;51.072;6.678;2023-07-31T05:16:41;17.50;99.90
3001;DHT22;1510;51.072;6.678;2023-07-31T05:19:08;17.60;99.90
3001;DHT22;1510;51.072;6.678;2023-07-31T05:21:35;17.60;99.90
3001;DHT22;1510;51.072;6.678;2023-07-31T05:24:03;17.70;99.90
3001;DHT22;1510;51.072;6.678;2023-07-31T05:26:30;17.80;99.90
3001;DHT22;1510;51.072;6.678;2023-07-31T05:28:57;17.70;99.90
3001;DHT22;1510;51.072;6.678;2023-07-31T05:31:24;17.70;99.90
3001;DHT22;1510;51.072;6.678;2023-07-31T05:33:51;17.70;99.90
3001;DHT22;1510;51.072;6.678;2023-07-31T05:36:18;17.70;99.90
3001;DHT22;1510;51.072;6.678;2023-07-31T05:38:44;17.70;99.90
3001;DHT22;1510;51.072;6.678;2023-07-31T05:41:13;17.70;99.90
3001;DHT22;1510;51.072;6.678;2023-07-31T05:43:40;17.60;99.90
3001;DHT22;1510;51.072;6.678;2023-07-31T05:46:09;17.60;99.90
3001;DHT22;1510;51.072;6.678;2023-07-31T05:48:37;17.60;99.90
3001;DHT22;1510;51.072;6.678;2023-07-31T05:51:04;17.60;99.90
3001;DHT22;1510;51.072;6.678;2023-07-31T05:53:31;17.60;99.90
3001;DHT22;1510;51.072;6.678;2023-07-31T05:55:58;17.60;99.90
3001;DHT22;1510;51.072;6.678;2023-07-31T05:58:26;17.30;99.90
3001;DHT22;1510;51.072;6.678;2023-07-31T06:00:53;17.10;99.90
3001;DHT22;1510;51.072;6.678;2023-07-31T06:03:19;17.00;99.90
3001;DHT22;1510;51.072;6.678;2023-07-31T06:05:46;16.90;99.90
3001;DHT22;1510;51.072;6.678;2023-07-31T06:08:13;16.80;99.90
3001;DHT22;1510;51.072;6.678;2023-07-31T06:10:40;16.80;99.90
3001;DHT22;1510;51.072;6.678;2023-07-31T06:13:07;16.80;99.90
3001;DHT22;1510;51.072;6.678;2023-07-31T06:15:36;16.80;99.90
3001;DHT22;1510;51.072;6.678;2023-07-31T06:18:03;16.80;99.90
3001;DHT22;1510;51.072;6.678;2023-07-31T06:20:33;16.90;99.90
3001;DHT22;1510;51.072;6.678;2023-07-31T06:23:00;16.90;99.90
3001;DHT22;1510;51.072;6.678;2023-07-31T06:25:26;17.00;99.90
3001;DHT22;1510;51.072;6.678;2023-07-31T06:27:53;17.10;99.90
3001;DHT22;1510;51.072;6.678;2023-07-31T06:30:20;17.10;99.90
3001;DHT22;1510;51.072;6.678;2023-07-31T06:32:48;17.20;99.90
3001;DHT22;1510;51.072;6.678;2023-07-31T06:35:15;17.30;99.90
3001;DHT22;1510;51.072;6.678;2023-07-31T06:37:42;17.40;99.90
3001;DHT22;1510;51.072;6.678;2023-07-31T06:40:10;17.50;99.90
3001;DHT22;1510;51.072;6.678;2023-07-31T06:42:37;17.70;99.90
3001;DHT22;1510;51.072;6.678;2023-07-31T06:45:05;17.80;99.90
3001;DHT22;1510;51.072;6.678;2023-07-31T06:47:32;17.90;99.90
3001;DHT22;1510;51.072;6.678;2023-07-31T06:50:00;17.90;99.90
3001;DHT22;1510;51.072;6.678;2023-07-31T06:52:27;18.00;99.90
3001;DHT22;1510;51.072;6.678;2023-07-31T06:55:04;18.00;99.90
3001;DHT22;1510;51.072;6.678;2023-07-31T06:57:42;18.10;99.90
3001;DHT22;1510;51.072;6.678;2023-07-31T07:00:10;18.10;99.90
3001;DHT22;1510;51.072;6.678;2023-07-31T07:02:37;18.10;99.90
3001;DHT22;1510;51.072;6.678;2023-07-31T07:05:06;18.10;99.90
3001;DHT22;1510;51.072;6.678;2023-07-31T07:07:33;18.10;99.90
3001;DHT22;1510;51.072;6.678;2023-07-31T07:10:00;18.10;99.90
3001;DHT22;1510;51.072;6.678;2023-07-31T07:12:29;18.10;99.90
3001;DHT22;1510;51.072;6.678;2023-07-31T07:14:56;18.10;99.90
3001;DHT22;1510;51.072;6.678;2023-07-31T07:17:24;18.00;99.90
3001;DHT22;1510;51.072;6.678;2023-07-31T07:19:50;18.00;99.90
3001;DHT22;1510;51.072;6.678;2023-07-31T07:22:19;17.80;99.90
3001;DHT22;1510;51.072;6.678;2023-07-31T07:24:46;17.60;99.90
3001;DHT22;1510;51.072;6.678;2023-07-31T07:27:12;17.50;99.90
3001;DHT22;1510;51.072;6.678;2023-07-31T07:29:40;17.40;99.90
3001;DHT22;1510;51.072;6.678;2023-07-31T07:32:08;17.40;99.90
3001;DHT22;1510;51.072;6.678;2023-07-31T07:34:34;17.30;99.90
3001;DHT22;1510;51.072;6.678;2023-07-31T07:37:01;17.40;99.90
3001;DHT22;1510;51.072;6.678;2023-07-31T07:39:29;17.40;99.90
3001;DHT22;1510;51.072;6.678;2023-07-31T07:41:56;17.30;99.90
3001;DHT22;1510;51.072;6.678;2023-07-31T07:44:23;17.30;99.90
3001;DHT22;1510;51.072;6.678;2023-07-31T07:46:50;17.30;99.90
3001;DHT22;1510;51.072;6.678;2023-07-31T07:49:17;17.40;99.90
3001;DHT22;1510;51.072;6.678;2023-07-31T07:51:44;17.50;99.90
3001;DHT22;1510;51.072;6.678;2023-07-31T07:54:10;17.60;99.90
3001;DHT22;1510;51.072;6.678;2023-07-31T07:56:39;17.70;99.90
3001;DHT22;1510;51.072;6.678;2023-07-31T07:59:05;17.60;99.90
3001;DHT22;1510;51.072;6.678;2023-07-31T08:01:32;17.60;99.90
3001;DHT22;1510;51.072;6.678;2023-07-31T08:03:59;17.60;99.90
3001;DHT22;1510;51.072;6.678;2023-07-31T08:06:26;17.60;99.90
3001;DHT22;1510;51.072;6.678;2023-07-31T08:08:55;17.60;99.90
3001;DHT22;1510;51.072;6.678;2023-07-31T08:11:21;17.60;99.90
3001;DHT22;1510;51.072;6.678;2023-07-31T08:13:50;17.70;99.90
3001;DHT22;1510;51.072;6.678;2023-07-31T08:16:17;17.70;99.90
3001;DHT22;1510;51.072;6.678;2023-07-31T08:18:44;17.80;99.90
3001;DHT22;1510;51.072;6.678;2023-07-31T08:21:11;17.90;99.90
3001;DHT22;1510;51.072;6.678;2023-07-31T08:23:37;17.90;99.90
3001;DHT22;1510;51.072;6.678;2023-07-31T08:26:04;18.00;99.90
3001;DHT22;1510;51.072;6.678;2023-07-31T08:28:31;18.20;99.90
3001;DHT22;1510;51.072;6.678;2023-07-31T08:30:59;18.30;99.90
3001;DHT22;1510;51.072;6.678;2023-07-31T08:33:26;18.40;99.90
3001;DHT22;1510;51.072;6.678;2023-07-31T08:35:53;18.60;99.90
3001;DHT22;1510;51.072;6.678;2023-07-31T08:38:19;18.90;99.90
3001;DHT22;1510;51.072;6.678;2023-07-31T08:40:46;19.10;99.90
3001;DHT22;1510;51.072;6.678;2023-07-31T08:43:13;19.30;99.90
3001;DHT22;1510;51.072;6.678;2023-07-31T08:45:42;19.40;99.90
3001;DHT22;1510;51.072;6.678;2023-07-31T08:48:11;19.50;99.90
3001;DHT22;1510;51.072;6.678;2023-07-31T08:50:38;19.80;99.90
3001;DHT22;1510;51.072;6.678;2023-07-31T08:53:05;19.80;99.90
3001;DHT22;1510;51.072;6.678;2023-07-31T08:55:32;19.80;99.90
3001;DHT22;1510;51.072;6.678;2023-07-31T08:58:00;19.60;99.90
3001;DHT22;1510;51.072;6.678;2023-07-31T09:00:30;19.40;99.90
3001;DHT22;1510;51.072;6.678;2023-07-31T09:02:59;19.20;99.90
3001;DHT22;1510;51.072;6.678;2023-07-31T09:05:31;18.90;99.90
3001;DHT22;1510;51.072;6.678;2023-07-31T09:07:58;18.70;99.90
3001;DHT22;1510;51.072;6.678;2023-07-31T09:10:25;18.60;99.90
3001;DHT22;1510;51.072;6.678;2023-07-31T09:12:52;18.40;99.90
3001;DHT22;1510;51.072;6.678;2023-07-31T09:15:19;18.40;99.90
3001;DHT22;1510;51.072;6.678;2023-07-31T09:17:46;18.50;99.90
3001;DHT22;1510;51.072;6.678;2023-07-31T09:20:14;18.70;99.90
3001;DHT22;1510;51.072;6.678;2023-07-31T09:22:44;18.90;99.90
3001;DHT22;1510;51.072;6.678;2023-07-31T09:25:18;19.30;99.90
3001;DHT22;1510;51.072;6.678;2023-07-31T09:27:49;19.60;99.90
3001;DHT22;1510;51.072;6.678;2023-07-31T09:30:16;19.80;99.90
3001;DHT22;1510;51.072;6.678;2023-07-31T09:32:44;19.90;99.90
3001;DHT22;1510;51.072;6.678;2023-07-31T09:35:19;20.00;99.90
3001;DHT22;1510;51.072;6.678;2023-07-31T09:37:50;20.00;99.90
3001;DHT22;1510;51.072;6.678;2023-07-31T09:40:27;20.00;99.90
3001;DHT22;1510;51.072;6.678;2023-07-31T09:42:56;20.00;99.90
3001;DHT22;1510;51.072;6.678;2023-07-31T09:45:24;19.90;99.90
3001;DHT22;1510;51.072;6.678;2023-07-31T09:47:51;19.70;99.90
3001;DHT22;1510;51.072;6.678;2023-07-31T09:50:20;19.90;99.90
3001;DHT22;1510;51.072;6.678;2023-07-31T09:52:49;19.90;99.90
3001;DHT22;1510;51.072;6.678;2023-07-31T09:55:16;20.20;99.90
3001;DHT22;1510;51.072;6.678;2023-07-31T09:57:44;20.20;99.90
3001;DHT22;1510;51.072;6.678;2023-07-31T10:00:13;20.30;99.90
3001;DHT22;1510;51.072;6.678;2023-07-31T10:02:41;20.10;99.90
3001;DHT22;1510;51.072;6.678;2023-07-31T10:05:08;20.20;99.90
3001;DHT22;1510;51.072;6.678;2023-07-31T10:07:37;19.90;99.90
3001;DHT22;1510;51.072;6.678;2023-07-31T10:10:07;19.10;99.90
3001;DHT22;1510;51.072;6.678;2023-07-31T10:12:35;19.20;99.90
3001;DHT22;1510;51.072;6.678;2023-07-31T10:15:03;19.60;99.90
3001;DHT22;1510;51.072;6.678;2023-07-31T10:17:30;19.80;99.90
3001;DHT22;1510;51.072;6.678;2023-07-31T10:19:58;19.80;99.90
3001;DHT22;1510;51.072;6.678;2023-07-31T10:22:26;19.80;99.90
3001;DHT22;1510;51.072;6.678;2023-07-31T10:24:55;19.80;99.90
3001;DHT22;1510;51.072;6.678;2023-07-31T10:27:23;19.90;99.90
3001;DHT22;1510;51.072;6.678;2023-07-31T10:29:50;20.30;99.90
3001;DHT22;1510;51.072;6.678;2023-07-31T10:32:19;20.70;99.90
3001;DHT22;1510;51.072;6.678;2023-07-31T10:34:48;20.80;99.90
3001;DHT22;1510;51.072;6.678;2023-07-31T10:37:23;20.70;99.90
3001;DHT22;1510;51.072;6.678;2023-07-31T10:39:58;20.60;99.90
3001;DHT22;1510;51.072;6.678;2023-07-31T10:42:31;20.30;99.90
3001;DHT22;1510;51.072;6.678;2023-07-31T10:44:58;20.40;99.90
3001;DHT22;1510;51.072;6.678;2023-07-31T10:47:26;20.40;99.90
3001;DHT22;1510;51.072;6.678;2023-07-31T10:49:53;20.30;99.90
3001;DHT22;1510;51.072;6.678;2023-07-31T10:52:20;20.60;99.90
3001;DHT22;1510;51.072;6.678;2023-07-31T10:55:16;20.60;99.90
3001;DHT22;1510;51.072;6.678;2023-07-31T10:57:47;20.50;99.90
3001;DHT22;1510;51.072;6.678;2023-07-31T11:00:19;20.90;99.90
3001;DHT22;1510;51.072;6.678;2023-07-31T11:02:56;21.20;99.90
3001;DHT22;1510;51.072;6.678;2023-07-31T11:05:44;21.40;98.60
3001;DHT22;1510;51.072;6.678;2023-07-31T11:08:16;21.60;97.60
3001;DHT22;1510;51.072;6.678;2023-07-31T11:10:43;22.10;96.00
3001;DHT22;1510;51.072;6.678;2023-07-31T11:13:12;22.20;96.00
3001;DHT22;1510;51.072;6.678;2023-07-31T11:15:39;22.40;96.10
3001;DHT22;1510;51.072;6.678;2023-07-31T11:18:06;22.90;96.30
3001;DHT22;1510;51.072;6.678;2023-07-31T11:20:34;22.80;92.80
3001;DHT22;1510;51.072;6.678;2023-07-31T11:23:02;22.70;92.80
3001;DHT22;1510;51.072;6.678;2023-07-31T11:25:29;22.40;92.60
3001;DHT22;1510;51.072;6.678;2023-07-31T11:27:57;22.90;92.90
3001;DHT22;1510;51.072;6.678;2023-07-31T11:30:25;23.70;91.30
3001;DHT22;1510;51.072;6.678;2023-07-31T11:32:52;23.60;89.30
3001;DHT22;1510;51.072;6.678;2023-07-31T11:35:19;23.20;88.90
3001;DHT22;1510;51.072;6.678;2023-07-31T11:37:46;23.10;88.90
3001;DHT22;1510;51.072;6.678;2023-07-31T11:40:14;23.20;89.00
3001;DHT22;1510;51.072;6.678;2023-07-31T11:42:41;23.30;89.10
3001;DHT22;1510;51.072;6.678;2023-07-31T11:45:08;22.90;88.70
3001;DHT22;1510;51.072;6.678;2023-07-31T11:47:37;23.20;89.00
3001;DHT22;1510;51.072;6.678;2023-07-31T11:50:06;23.60;86.00
3001;DHT22;1510;51.072;6.678;2023-07-31T11:52:38;24.20;82.00
3001;DHT22;1510;51.072;6.678;2023-07-31T11:55:08;24.50;82.30
3001;DHT22;1510;51.072;6.678;2023-07-31T11:57:37;23.40;81.30
3001;DHT22;1510;51.072;6.678;2023-07-31T12:00:06;22.60;83.30
3001;DHT22;1510;51.072;6.678;2023-07-31T12:02:34;22.40;89.00
3001;DHT22;1510;51.072;6.678;2023-07-31T12:05:02;22.30;88.20
3001;DHT22;1510;51.072;6.678;2023-07-31T12:07:46;21.80;87.70
3001;DHT22;1510;51.072;6.678;2023-07-31T12:10:27;21.80;87.70
3001;DHT22;1510;51.072;6.678;2023-07-31T12:13:02;21.80;87.70
3001;DHT22;1510;51.072;6.678;2023-07-31T12:15:32;22.10;88.10
3001;DHT22;1510;51.072;6.678;2023-07-31T12:17:59;22.40;88.30
3001;DHT22;1510;51.072;6.678;2023-07-31T12:20:30;21.90;87.80
3001;DHT22;1510;51.072;6.678;2023-07-31T12:22:57;22.10;88.00
3001;DHT22;1510;51.072;6.678;2023-07-31T12:25:29;22.20;88.00
3001;DHT22;1510;51.072;6.678;2023-07-31T12:27:56;21.90;87.80
3001;DHT22;1510;51.072;6.678;2023-07-31T12:30:27;21.90;90.80
3001;DHT22;1510;51.072;6.678;2023-07-31T12:32:54;22.00;91.20
3001;DHT22;1510;51.072;6.678;2023-07-31T12:35:21;21.90;90.00
3001;DHT22;1510;51.072;6.678;2023-07-31T12:37:49;22.10;93.50
3001;DHT22;1510;51.072;6.678;2023-07-31T12:40:16;21.60;95.80
3001;DHT22;1510;51.072;6.678;2023-07-31T12:42:43;21.50;95.70
3001;DHT22;1510;51.072;6.678;2023-07-31T12:45:10;21.50;95.70
3001;DHT22;1510;51.072;6.678;2023-07-31T12:47:36;21.70;93.80
3001;DHT22;1510;51.072;6.678;2023-07-31T12:50:04;22.10;92.50
3001;DHT22;1510;51.072;6.678;2023-07-31T12:52:31;22.80;91.10
3001;DHT22;1510;51.072;6.678;2023-07-31T12:54:59;23.00;88.80
3001;DHT22;1510;51.072;6.678;2023-07-31T12:57:26;22.90;88.70
3001;DHT22;1510;51.072;6.678;2023-07-31T12:59:53;23.30;89.10
3001;DHT22;1510;51.072;6.678;2023-07-31T13:02:20;23.20;88.90
3001;DHT22;1510;51.072;6.678;2023-07-31T13:04:47;22.80;88.50
3001;DHT22;1510;51.072;6.678;2023-07-31T13:07:14;22.40;84.60
3001;DHT22;1510;51.072;6.678;2023-07-31T13:09:40;22.50;88.30
3001;DHT22;1510;51.072;6.678;2023-07-31T13:12:09;22.50;88.30
3001;DHT22;1510;51.072;6.678;2023-07-31T13:14:36;22.50;88.30
3001;DHT22;1510;51.072;6.678;2023-07-31T13:17:03;22.50;88.30
3001;DHT22;1510;51.072;6.678;2023-07-31T13:19:30;22.60;88.40
3001;DHT22;1510;51.072;6.678;2023-07-31T13:21:57;22.50;82.90
3001;DHT22;1510;51.072;6.678;2023-07-31T13:24:23;23.10;82.70
3001;DHT22;1510;51.072;6.678;2023-07-31T13:26:50;23.40;81.30
3001;DHT22;1510;51.072;6.678;2023-07-31T13:29:18;23.70;77.70
3001;DHT22;1510;51.072;6.678;2023-07-31T13:31:47;24.00;76.60
3001;DHT22;1510;51.072;6.678;2023-07-31T13:34:14;24.00;73.70
3001;DHT22;1510;51.072;6.678;2023-07-31T13:36:41;24.10;74.60
3001;DHT22;1510;51.072;6.678;2023-07-31T13:39:08;23.90;73.70
3001;DHT22;1510;51.072;6.678;2023-07-31T13:41:35;24.30;74.00
3001;DHT22;1510;51.072;6.678;2023-07-31T13:44:02;24.50;74.20
3001;DHT22;1510;51.072;6.678;2023-07-31T13:46:30;24.60;74.30
3001;DHT22;1510;51.072;6.678;2023-07-31T13:48:58;25.60;58.30
3001;DHT22;1510;51.072;6.678;2023-07-31T13:51:25;25.90;49.60
3001;DHT22;1510;51.072;6.678;2023-07-31T13:53:52;25.90;49.50
3001;DHT22;1510;51.072;6.678;2023-07-31T13:56:19;25.20;49.20
3001;DHT22;1510;51.072;6.678;2023-07-31T13:58:46;25.10;49.10
3001;DHT22;1510;51.072;6.678;2023-07-31T14:01:13;24.90;49.00
3001;DHT22;1510;51.072;6.678;2023-07-31T14:03:41;24.60;50.60
3001;DHT22;1510;51.072;6.678;2023-07-31T14:06:08;24.20;57.10
3001;DHT22;1510;51.072;6.678;2023-07-31T14:08:35;23.60;56.60
3001;DHT22;1510;51.072;6.678;2023-07-31T14:11:02;23.00;56.00
3001;DHT22;1510;51.072;6.678;2023-07-31T14:13:29;22.50;62.00
3001;DHT22;1510;51.072;6.678;2023-07-31T14:15:55;22.20;63.80
3001;DHT22;1510;51.072;6.678;2023-07-31T14:18:22;22.10;63.80
3001;DHT22;1510;51.072;6.678;2023-07-31T14:20:51;21.80;63.50
3001;DHT22;1510;51.072;6.678;2023-07-31T14:23:18;21.90;67.60
3001;DHT22;1510;51.072;6.678;2023-07-31T14:25:45;22.10;63.80
3001;DHT22;1510;51.072;6.678;2023-07-31T14:28:12;22.40;64.10
3001;DHT22;1510;51.072;6.678;2023-07-31T14:30:39;22.80;64.40
3001;DHT22;1510;51.072;6.678;2023-07-31T14:33:06;22.90;58.60
3001;DHT22;1510;51.072;6.678;2023-07-31T14:35:33;23.10;56.20
3001;DHT22;1510;51.072;6.678;2023-07-31T14:38:02;23.30;56.30
3001;DHT22;1510;51.072;6.678;2023-07-31T14:40:29;23.50;56.50
3001;DHT22;1510;51.072;6.678;2023-07-31T14:42:55;23.40;56.40
3001;DHT22;1510;51.072;6.678;2023-07-31T14:45:22;23.20;56.20
3001;DHT22;1510;51.072;6.678;2023-07-31T14:47:49;23.10;56.10
3001;DHT22;1510;51.072;6.678;2023-07-31T14:50:16;22.80;55.80
3001;DHT22;1510;51.072;6.678;2023-07-31T14:52:43;22.80;55.90
3001;DHT22;1510;51.072;6.678;2023-07-31T14:55:11;22.80;55.90
3001;DHT22;1510;51.072;6.678;2023-07-31T14:57:38;22.40;55.50
3001;DHT22;1510;51.072;6.678;2023-07-31T15:00:06;22.30;63.00
3001;DHT22;1510;51.072;6.678;2023-07-31T15:02:34;22.10;63.30
3001;DHT22;1510;51.072;6.678;2023-07-31T15:05:01;21.90;62.90
3001;DHT22;1510;51.072;6.678;2023-07-31T15:07:28;21.90;63.60
3001;DHT22;1510;51.072;6.678;2023-07-31T15:09:55;22.00;63.70
3001;DHT22;1510;51.072;6.678;2023-07-31T15:12:23;22.00;63.70
3001;DHT22;1510;51.072;6.678;2023-07-31T15:14:50;22.10;63.80
3001;DHT22;1510;51.072;6.678;2023-07-31T15:17:17;22.10;63.70
3001;DHT22;1510;51.072;6.678;2023-07-31T15:19:44;22.00;63.60
3001;DHT22;1510;51.072;6.678;2023-07-31T15:22:11;21.80;63.50
3001;DHT22;1510;51.072;6.678;2023-07-31T15:24:38;21.70;63.40
3001;DHT22;1510;51.072;6.678;2023-07-31T15:27:05;21.60;63.30
3001;DHT22;1510;51.072;6.678;2023-07-31T15:29:35;21.60;63.40
3001;DHT22;1510;51.072;6.678;2023-07-31T15:32:04;21.40;63.20
3001;DHT22;1510;51.072;6.678;2023-07-31T15:34:30;21.30;66.10
3001;DHT22;1510;51.072;6.678;2023-07-31T15:36:58;21.10;65.20
3001;DHT22;1510;51.072;6.678;2023-07-31T15:39:25;21.10;68.30
3001;DHT22;1510;51.072;6.678;2023-07-31T15:41:52;21.00;67.10
3001;DHT22;1510;51.072;6.678;2023-07-31T15:44:19;20.90;70.20
3001;DHT22;1510;51.072;6.678;2023-07-31T15:46:48;20.90;68.50
3001;DHT22;1510;51.072;6.678;2023-07-31T15:49:15;20.90;68.30
3001;DHT22;1510;51.072;6.678;2023-07-31T15:51:42;20.80;70.70
3001;DHT22;1510;51.072;6.678;2023-07-31T15:54:09;20.80;71.60
3001;DHT22;1510;51.072;6.678;2023-07-31T15:56:35;20.80;70.80
3001;DHT22;1510;51.072;6.678;2023-07-31T15:59:02;20.70;70.70
3001;DHT22;1510;51.072;6.678;2023-07-31T16:01:30;20.60;70.70
3001;DHT22;1510;51.072;6.678;2023-07-31T16:03:58;20.40;75.00
3001;DHT22;1510;51.072;6.678;2023-07-31T16:06:26;20.20;76.70
3001;DHT22;1510;51.072;6.678;2023-07-31T16:08:52;20.00;78.20